sensor_id;sensor_type;location;lat;lon;timestamp;pressure;altitude;pressure_sealevel;temperature;humidity
4273;BME280;63887;53.656;9.810;2023-02-18T00:00:55;101692.91;;;6.47;83.03
4273;BME280;63887;53.656;9.810;2023-02-18T00:03:22;101691.13;;;6.49;83.75
4273;BME280;63887;53.656;9.810;2023-02-18T00:05:49;101693.91;;;6.42;84.19
4273;BME280;63887;53.656;9.810;2023-02-18T00:08:15;101697.19;;;6.50;83.91
4273;BME280;63887;53.656;9.810;2023-02-18T00:10:41;101692.59;;;6.61;83.24
4273;BME280;63887;53.656;9.810;2023-02-18T00:13:08;101689.06;;;6.64;82.74
4273;BME280;63887;53.656;9.810;2023-02-18T00:15:37;101705.78;;;6.53;83.48
4273;BME280;63887;53.656;9.810;2023-02-18T00:18:04;101706.63;;;6.54;83.52
4273;BME280;63887;53.656;9.810;2023-02-18T00:20:30;101714.66;;;6.46;84.00
4273;BME280;63887;53.656;9.810;2023-02-18T00:22:57;101710.44;;;6.39;84.29
4273;BME280;63887;53.656;9.810;2023-02-18T00:25:23;101714.56;;;6.49;84.01
4273;BME280;63887;53.656;9.810;2023-02-18T00:27:50;101716.47;;;6.43;83.49
4273;BME280;63887;53.656;9.810;2023-02-18T00:30:16;101711.38;;;6.37;83.95
4273;BME280;63887;53.656;9.810;2023-02-18T00:32:44;101718.59;;;6.25;84.00
4273;BME280;63887;53.656;9.810;2023-02-18T00:35:10;101714.91;;;6.34;83.35
4273;BME280;63887;53.656;9.810;2023-02-18T00:37:36;101721.06;;;6.32;84.28
4273;BME280;63887;53.656;9.810;2023-02-18T00:40:03;101718.44;;;6.32;83.24
4273;BME280;63887;53.656;9.810;2023-02-18T00:42:30;101725.63;;;6.20;84.22
4273;BME280;63887;53.656;9.810;2023-02-18T00:44:56;101734.44;;;6.15;84.39
4273;BME280;63887;53.656;9.810;2023-02-18T00:47:25;101724.97;;;6.11;84.48
4273;BME280;63887;53.656;9.810;2023-02-18T00:49:53;101720.66;;;6.08;84.76
4273;BME280;63887;53.656;9.810;2023-02-18T00:52:19;101731.00;;;6.13;85.40
4273;BME280;63887;53.656;9.810;2023-02-18T00:54:45;101729.34;;;6.10;84.49
4273;BME280;63887;53.656;9.810;2023-02-18T00:57:12;101731.06;;;6.11;85.12
4273;BME280;63887;53.656;9.810;2023-02-18T00:59:38;101726.72;;;6.10;84.67
4273;BME280;63887;53.656;9.810;2023-02-18T01:02:04;101723.09;;;6.17;84.24
4273;BME280;63887;53.656;9.810;2023-02-18T01:04:31;101721.44;;;6.13;84.83
4273;BME280;63887;53.656;9.810;2023-02-18T01:06:59;101721.38;;;6.16;84.73
4273;BME280;63887;53.656;9.810;2023-02-18T01:09:26;101718.03;;;6.10;84.99
4273;BME280;63887;53.656;9.810;2023-02-18T01:11:52;101713.03;;;6.01;84.88
4273;BME280;63887;53.656;9.810;2023-02-18T01:14:19;101718.28;;;5.99;84.73
4273;BME280;63887;53.656;9.810;2023-02-18T01:16:45;101723.56;;;5.96;85.13
4273;BME280;63887;53.656;9.810;2023-02-18T01:19:11;101714.66;;;6.05;85.26
4273;BME280;63887;53.656;9.810;2023-02-18T01:21:38;101725.31;;;5.94;86.09
4273;BME280;63887;53.656;9.810;2023-02-18T01:24:06;101719.84;;;6.06;85.33
4273;BME280;63887;53.656;9.810;2023-02-18T01:26:34;101717.53;;;5.92;85.87
4273;BME280;63887;53.656;9.810;2023-02-18T01:29:00;101719.34;;;5.87;86.28
4273;BME280;63887;53.656;9.810;2023-02-18T01:31:26;101717.47;;;5.94;86.44
4273;BME280;63887;53.656;9.810;2023-02-18T01:33:53;101727.88;;;5.97;86.59
4273;BME280;63887;53.656;9.810;2023-02-18T01:36:19;101723.56;;;5.94;86.54
4273;BME280;63887;53.656;9.810;2023-02-18T01:38:46;101730.50;;;5.94;86.81
4273;BME280;63887;53.656;9.810;2023-02-18T01:41:13;101719.38;;;5.86;86.52
4273;BME280;63887;53.656;9.810;2023-02-18T01:43:40;101727.22;;;5.84;86.74
4273;BME280;63887;53.656;9.810;2023-02-18T01:46:13;101720.25;;;5.85;86.42
4273;BME280;63887;53.656;9.810;2023-02-18T01:48:40;101721.19;;;5.82;86.66
4273;BME280;63887;53.656;9.810;2023-02-18T01:51:08;101719.41;;;5.84;86.66
4273;BME280;63887;53.656;9.810;2023-02-18T01:53:37;101722.06;;;5.80;86.91
4273;BME280;63887;53.656;9.810;2023-02-18T01:56:05;101709.09;;;5.78;87.12
4273;BME280;63887;53.656;9.810;2023-02-18T01:58:35;101716.00;;;5.81;87.46
4273;BME280;63887;53.656;9.810;2023-02-18T02:01:02;101718.66;;;5.78;87.57
4273;BME280;63887;53.656;9.810;2023-02-18T02:03:28;101706.47;;;5.80;87.88
4273;BME280;63887;53.656;9.810;2023-02-18T02:05:54;101709.09;;;5.78;88.27
4273;BME280;63887;53.656;9.810;2023-02-18T02:08:21;101713.50;;;5.75;88.55
4273;BME280;63887;53.656;9.810;2023-02-18T02:10:52;101705.63;;;5.78;88.00
4273;BME280;63887;53.656;9.810;2023-02-18T02:13:25;101707.34;;;5.79;87.80
4273;BME280;63887;53.656;9.810;2023-02-18T02:15:58;101703.00;;;5.79;87.72
4273;BME280;63887;53.656;9.810;2023-02-18T02:18:37;101710.84;;;5.78;88.32
4273;BME280;63887;53.656;9.810;2023-02-18T02:21:17;101709.94;;;5.79;87.96
4273;BME280;63887;53.656;9.810;2023-02-18T02:26:43;101698.72;;;5.77;87.77
4273;BME280;63887;53.656;9.810;2023-02-18T02:29:22;101702.31;;;5.71;88.24
4273;BME280;63887;53.656;9.810;2023-02-18T02:32:12;101694.53;;;5.69;87.85
4273;BME280;63887;53.656;9.810;2023-02-18T02:34:52;101693.72;;;5.67;88.39
4273;BME280;63887;53.656;9.810;2023-02-18T02:37:22;101690.31;;;5.62;88.82
4273;BME280;63887;53.656;9.810;2023-02-18T02:39:55;101693.75;;;5.64;88.50
4273;BME280;63887;53.656;9.810;2023-02-18T02:42:24;101683.38;;;5.63;88.57
4273;BME280;63887;53.656;9.810;2023-02-18T02:44:53;101686.78;;;5.66;88.36
4273;BME280;63887;53.656;9.810;2023-02-18T02:47:25;101688.53;;;5.64;88.38
4273;BME280;63887;53.656;9.810;2023-02-18T02:49:56;101681.69;;;5.60;88.86
4273;BME280;63887;53.656;9.810;2023-02-18T02:52:26;101690.19;;;5.70;88.40
4273;BME280;63887;53.656;9.810;2023-02-18T02:54:53;101681.44;;;5.73;87.43
4273;BME280;63887;53.656;9.810;2023-02-18T02:57:40;101684.81;;;5.78;87.37
4273;BME280;63887;53.656;9.810;2023-02-18T03:00:12;101683.03;;;5.80;87.09
4273;BME280;63887;53.656;9.810;2023-02-18T03:02:41;101676.19;;;5.76;87.60
4273;BME280;63887;53.656;9.810;2023-02-18T03:05:15;101676.19;;;5.76;87.24
4273;BME280;63887;53.656;9.810;2023-02-18T03:08:08;101683.94;;;5.77;87.45
4273;BME280;63887;53.656;9.810;2023-02-18T03:10:48;101673.38;;;5.86;86.85
4273;BME280;63887;53.656;9.810;2023-02-18T03:13:23;101670.81;;;5.83;87.66
4273;BME280;63887;53.656;9.810;2023-02-18T03:15:54;101668.97;;;5.88;87.21
4273;BME280;63887;53.656;9.810;2023-02-18T03:18:22;101672.31;;;5.95;86.40
4273;BME280;63887;53.656;9.810;2023-02-18T03:20:53;101670.63;;;5.94;86.88
4273;BME280;63887;53.656;9.810;2023-02-18T03:23:22;101675.81;;;5.94;86.81
4273;BME280;63887;53.656;9.810;2023-02-18T03:25:51;101670.69;;;5.89;87.92
4273;BME280;63887;53.656;9.810;2023-02-18T03:28:18;101682.59;;;6.03;86.38
4273;BME280;63887;53.656;9.810;2023-02-18T03:30:46;101675.72;;;6.00;86.59
4273;BME280;63887;53.656;9.810;2023-02-18T03:33:16;101673.84;;;6.05;86.34
4273;BME280;63887;53.656;9.810;2023-02-18T03:35:43;101666.13;;;6.02;86.94
4273;BME280;63887;53.656;9.810;2023-02-18T03:38:16;101672.28;;;5.98;87.26
4273;BME280;63887;53.656;9.810;2023-02-18T03:40:44;101668.00;;;5.95;87.01
4273;BME280;63887;53.656;9.810;2023-02-18T03:43:10;101671.47;;;5.96;86.36
4273;BME280;63887;53.656;9.810;2023-02-18T03:45:37;101667.00;;;6.01;85.86
4273;BME280;63887;53.656;9.810;2023-02-18T03:48:04;101668.72;;;6.02;86.11
4273;BME280;63887;53.656;9.810;2023-02-18T03:50:30;101671.94;;;6.15;85.14
4273;BME280;63887;53.656;9.810;2023-02-18T03:52:56;101665.88;;;6.14;84.56
4273;BME280;63887;53.656;9.810;2023-02-18T03:55:24;101665.00;;;6.14;84.55
4273;BME280;63887;53.656;9.810;2023-02-18T03:57:50;101666.72;;;6.15;84.78
4273;BME280;63887;53.656;9.810;2023-02-18T04:00:17;101673.56;;;6.19;85.23
4273;BME280;63887;53.656;9.810;2023-02-18T04:02:44;101665.53;;;6.30;84.27
4273;BME280;63887;53.656;9.810;2023-02-18T04:05:10;101669.09;;;6.25;84.12
4273;BME280;63887;53.656;9.810;2023-02-18T04:07:37;101659.53;;;6.24;84.86
4273;BME280;63887;53.656;9.810;2023-02-18T04:10:03;101644.94;;;6.17;85.31
4273;BME280;63887;53.656;9.810;2023-02-18T04:12:31;101651.19;;;6.10;86.54
4273;BME280;63887;53.656;9.810;2023-02-18T04:14:58;101643.38;;;6.10;87.15
4273;BME280;63887;53.656;9.810;2023-02-18T04:17:24;101642.56;;;6.07;88.04
4273;BME280;63887;53.656;9.810;2023-02-18T04:19:51;101635.69;;;6.04;88.15
4273;BME280;63887;53.656;9.810;2023-02-18T04:22:17;101634.16;;;5.94;89.54
4273;BME280;63887;53.656;9.810;2023-02-18T04:24:43;101629.00;;;5.92;89.55
4273;BME280;63887;53.656;9.810;2023-02-18T04:27:10;101626.38;;;5.92;90.13
4273;BME280;63887;53.656;9.810;2023-02-18T04:29:37;101616.06;;;5.88;89.73
4273;BME280;63887;53.656;9.810;2023-02-18T04:32:04;101612.59;;;5.87;90.41
4273;BME280;63887;53.656;9.810;2023-02-18T04:34:30;101612.63;;;5.86;90.40
4273;BME280;63887;53.656;9.810;2023-02-18T04:36:57;101606.56;;;5.85;90.47
4273;BME280;63887;53.656;9.810;2023-02-18T04:39:23;101606.69;;;5.79;89.96
4273;BME280;63887;53.656;9.810;2023-02-18T04:41:49;101607.59;;;5.77;90.48
4273;BME280;63887;53.656;9.810;2023-02-18T04:44:16;101609.47;;;5.72;90.52
4273;BME280;63887;53.656;9.810;2023-02-18T04:46:43;101602.66;;;5.64;90.43
4273;BME280;63887;53.656;9.810;2023-02-18T04:49:10;101603.66;;;5.59;90.80
4273;BME280;63887;53.656;9.810;2023-02-18T04:51:36;101614.94;;;5.58;91.81
4273;BME280;63887;53.656;9.810;2023-02-18T04:54:02;101615.75;;;5.60;91.31
4273;BME280;63887;53.656;9.810;2023-02-18T04:56:29;101612.88;;;5.74;91.23
4273;BME280;63887;53.656;9.810;2023-02-18T04:58:55;101615.66;;;5.66;90.65
4273;BME280;63887;53.656;9.810;2023-02-18T05:01:21;101607.00;;;5.64;91.20
4273;BME280;63887;53.656;9.810;2023-02-18T05:03:49;101607.91;;;5.61;91.89
4273;BME280;63887;53.656;9.810;2023-02-18T05:06:15;101609.59;;;5.64;91.74
4273;BME280;63887;53.656;9.810;2023-02-18T05:08:42;101608.72;;;5.65;91.76
4273;BME280;63887;53.656;9.810;2023-02-18T05:11:08;101603.69;;;5.57;92.85
4273;BME280;63887;53.656;9.810;2023-02-18T05:13:35;101603.53;;;5.63;92.86
4273;BME280;63887;53.656;9.810;2023-02-18T05:16:01;101605.34;;;5.60;92.96
4273;BME280;63887;53.656;9.810;2023-02-18T05:18:27;101603.69;;;5.57;94.12
4273;BME280;63887;53.656;9.810;2023-02-18T05:20:55;101596.66;;;5.61;93.63
4273;BME280;63887;53.656;9.810;2023-02-18T05:23:21;101599.38;;;5.56;93.88
4273;BME280;63887;53.656;9.810;2023-02-18T05:25:49;101591.56;;;5.56;94.86
4273;BME280;63887;53.656;9.810;2023-02-18T05:28:16;101589.81;;;5.57;95.12
4273;BME280;63887;53.656;9.810;2023-02-18T05:30:42;101586.38;;;5.55;95.34
4273;BME280;63887;53.656;9.810;2023-02-18T05:33:09;101590.06;;;5.45;95.68
4273;BME280;63887;53.656;9.810;2023-02-18T05:35:35;101584.84;;;5.45;96.16
4273;BME280;63887;53.656;9.810;2023-02-18T05:38:03;101574.59;;;5.38;96.34
4273;BME280;63887;53.656;9.810;2023-02-18T05:40:29;101571.97;;;5.38;96.23
4273;BME280;63887;53.656;9.810;2023-02-18T05:42:55;101566.81;;;5.37;96.84
4273;BME280;63887;53.656;9.810;2023-02-18T05:45:22;101565.03;;;5.39;98.08
4273;BME280;63887;53.656;9.810;2023-02-18T05:47:48;101571.16;;;5.36;98.36
4273;BME280;63887;53.656;9.810;2023-02-18T05:50:14;101565.97;;;5.35;98.14
4273;BME280;63887;53.656;9.810;2023-02-18T05:52:41;101562.50;;;5.34;97.24
4273;BME280;63887;53.656;9.810;2023-02-18T05:55:08;101569.31;;;5.42;97.67
4273;BME280;63887;53.656;9.810;2023-02-18T05:57:35;101564.16;;;5.40;97.72
4273;BME280;63887;53.656;9.810;2023-02-18T06:00:01;101566.75;;;5.40;98.03
4273;BME280;63887;53.656;9.810;2023-02-18T06:02:30;101552.03;;;5.39;97.46
4273;BME280;63887;53.656;9.810;2023-02-18T06:04:56;101558.03;;;5.41;98.51
4273;BME280;63887;53.656;9.810;2023-02-18T06:07:22;101560.75;;;5.35;98.94
4273;BME280;63887;53.656;9.810;2023-02-18T06:09:49;101553.69;;;5.42;98.41
4273;BME280;63887;53.656;9.810;2023-02-18T06:12:16;101542.44;;;5.41;97.41
4273;BME280;63887;53.656;9.810;2023-02-18T06:14:43;101535.59;;;5.37;97.85
4273;BME280;63887;53.656;9.810;2023-02-18T06:17:09;101521.88;;;5.29;97.66
4273;BME280;63887;53.656;9.810;2023-02-18T06:19:36;101507.88;;;5.34;98.18
4273;BME280;63887;53.656;9.810;2023-02-18T06:22:03;101500.31;;;5.24;97.96
4273;BME280;63887;53.656;9.810;2023-02-18T06:24:29;101502.84;;;5.27;97.87
4273;BME280;63887;53.656;9.810;2023-02-18T06:26:55;101501.13;;;5.26;98.46
4273;BME280;63887;53.656;9.810;2023-02-18T06:29:23;101505.31;;;5.33;97.25
4273;BME280;63887;53.656;9.810;2023-02-18T06:31:49;101501.03;;;5.30;98.28
4273;BME280;63887;53.656;9.810;2023-02-18T06:34:16;101501.97;;;5.28;97.83
4273;BME280;63887;53.656;9.810;2023-02-18T06:36:42;101501.00;;;5.32;98.34
4273;BME280;63887;53.656;9.810;2023-02-18T06:39:08;101496.75;;;5.28;97.52
4273;BME280;63887;53.656;9.810;2023-02-18T06:41:35;101487.25;;;5.27;98.56
4273;BME280;63887;53.656;9.810;2023-02-18T06:44:01;101473.50;;;5.22;98.86
4273;BME280;63887;53.656;9.810;2023-02-18T06:46:29;101476.06;;;5.23;97.68
4273;BME280;63887;53.656;9.810;2023-02-18T06:48:55;101467.41;;;5.23;98.94
4273;BME280;63887;53.656;9.810;2023-02-18T06:51:22;101461.38;;;5.21;98.23
4273;BME280;63887;53.656;9.810;2023-02-18T06:53:48;101458.78;;;5.21;98.12
4273;BME280;63887;53.656;9.810;2023-02-18T06:56:14;101454.41;;;5.23;98.36
4273;BME280;63887;53.656;9.810;2023-02-18T06:58:41;101436.97;;;5.26;98.57
4273;BME280;63887;53.656;9.810;2023-02-18T07:01:07;101423.88;;;5.29;99.27
4273;BME280;63887;53.656;9.810;2023-02-18T07:03:35;101433.47;;;5.27;99.48
4273;BME280;63887;53.656;9.810;2023-02-18T07:06:01;101444.72;;;5.28;98.86
4273;BME280;63887;53.656;9.810;2023-02-18T07:08:28;101427.31;;;5.31;99.27
4273;BME280;63887;53.656;9.810;2023-02-18T07:10:57;101428.28;;;5.27;98.98
4273;BME280;63887;53.656;9.810;2023-02-18T07:13:23;101433.47;;;5.27;99.19
4273;BME280;63887;53.656;9.810;2023-02-18T07:15:49;101431.53;;;5.35;98.99
4273;BME280;63887;53.656;9.810;2023-02-18T07:18:16;101436.78;;;5.34;99.40
4273;BME280;63887;53.656;9.810;2023-02-18T07:20:43;101428.03;;;5.38;99.78
4273;BME280;63887;53.656;9.810;2023-02-18T07:23:10;101408.00;;;5.42;99.44
4273;BME280;63887;53.656;9.810;2023-02-18T07:25:36;101402.59;;;5.51;98.99
4273;BME280;63887;53.656;9.810;2023-02-18T07:28:03;101388.53;;;5.58;98.49
4273;BME280;63887;53.656;9.810;2023-02-18T07:30:29;101375.38;;;5.64;98.22
4273;BME280;63887;53.656;9.810;2023-02-18T07:32:55;101364.88;;;5.68;97.97
4273;BME280;63887;53.656;9.810;2023-02-18T07:35:22;101380.50;;;5.68;98.19
4273;BME280;63887;53.656;9.810;2023-02-18T07:37:49;101375.41;;;5.62;99.17
4273;BME280;63887;53.656;9.810;2023-02-18T07:40:17;101359.00;;;5.60;98.97
4273;BME280;63887;53.656;9.810;2023-02-18T07:42:43;101350.16;;;5.67;98.60
4273;BME280;63887;53.656;9.810;2023-02-18T07:45:10;101340.59;;;5.68;98.33
4273;BME280;63887;53.656;9.810;2023-02-18T07:47:36;101332.75;;;5.69;98.65
4273;BME280;63887;53.656;9.810;2023-02-18T07:50:03;101316.91;;;5.77;98.27
4273;BME280;63887;53.656;9.810;2023-02-18T07:52:30;101310.03;;;5.75;97.73
4273;BME280;63887;53.656;9.810;2023-02-18T07:54:58;101309.03;;;5.80;97.67
4273;BME280;63887;53.656;9.810;2023-02-18T07:57:24;101305.88;;;5.69;99.25
4273;BME280;63887;53.656;9.810;2023-02-18T07:59:50;101293.78;;;5.66;99.49
4273;BME280;63887;53.656;9.810;2023-02-18T08:02:17;101296.13;;;5.76;98.28
4273;BME280;63887;53.656;9.810;2023-02-18T08:04:44;101294.25;;;5.82;98.31
4273;BME280;63887;53.656;9.810;2023-02-18T08:07:11;101282.09;;;5.83;97.58
4273;BME280;63887;53.656;9.810;2023-02-18T08:09:38;101289.13;;;5.78;98.72
4273;BME280;63887;53.656;9.810;2023-02-18T08:12:06;101286.72;;;5.72;98.62
4273;BME280;63887;53.656;9.810;2023-02-18T08:14:32;101285.72;;;5.76;99.00
4273;BME280;63887;53.656;9.810;2023-02-18T08:16:58;101283.13;;;5.76;98.79
4273;BME280;63887;53.656;9.810;2023-02-18T08:19:25;101285.63;;;5.79;98.85
4273;BME280;63887;53.656;9.810;2023-02-18T08:21:51;101285.53;;;5.83;97.86
4273;BME280;63887;53.656;9.810;2023-02-18T08:24:17;101285.59;;;5.80;98.53
4273;BME280;63887;53.656;9.810;2023-02-18T08:26:44;101272.34;;;5.91;97.87
4273;BME280;63887;53.656;9.810;2023-02-18T08:29:11;101276.78;;;5.86;98.97
4273;BME280;63887;53.656;9.810;2023-02-18T08:31:38;101278.69;;;5.79;98.95
4273;BME280;63887;53.656;9.810;2023-02-18T08:34:04;101275.41;;;5.73;97.86
4273;BME280;63887;53.656;9.810;2023-02-18T08:36:30;101271.00;;;5.75;98.96
4273;BME280;63887;53.656;9.810;2023-02-18T08:38:57;101256.09;;;5.80;98.17
4273;BME280;63887;53.656;9.810;2023-02-18T08:41:23;101246.69;;;5.76;98.48
4273;BME280;63887;53.656;9.810;2023-02-18T08:43:50;101241.56;;;5.73;98.86
4273;BME280;63887;53.656;9.810;2023-02-18T08:46:17;101234.41;;;5.81;97.87
4273;BME280;63887;53.656;9.810;2023-02-18T08:48:44;101226.38;;;5.90;98.51
4273;BME280;63887;53.656;9.810;2023-02-18T08:51:11;101222.75;;;5.95;98.16
4273;BME280;63887;53.656;9.810;2023-02-18T08:53:38;101220.91;;;5.99;97.04
4273;BME280;63887;53.656;9.810;2023-02-18T08:56:05;101207.34;;;5.86;97.45
4273;BME280;63887;53.656;9.810;2023-02-18T08:58:32;101192.47;;;5.91;97.58
4273;BME280;63887;53.656;9.810;2023-02-18T09:01:03;101179.50;;;5.90;97.57
4273;BME280;63887;53.656;9.810;2023-02-18T09:03:31;101180.38;;;5.89;98.38
4273;BME280;63887;53.656;9.810;2023-02-18T09:05:58;101155.06;;;5.95;98.33
4273;BME280;63887;53.656;9.810;2023-02-18T09:08:24;101158.31;;;6.02;97.61
4273;BME280;63887;53.656;9.810;2023-02-18T09:10:53;101155.91;;;5.96;97.89
4273;BME280;63887;53.656;9.810;2023-02-18T09:13:19;101145.50;;;5.94;97.75
4273;BME280;63887;53.656;9.810;2023-02-18T09:15:45;101146.34;;;5.96;97.84
4273;BME280;63887;53.656;9.810;2023-02-18T09:18:20;101146.09;;;6.04;97.71
4273;BME280;63887;53.656;9.810;2023-02-18T09:20:48;101145.50;;;5.96;98.01
4273;BME280;63887;53.656;9.810;2023-02-18T09:23:14;101128.97;;;5.97;98.04
4273;BME280;63887;53.656;9.810;2023-02-18T09:25:41;101128.84;;;6.02;98.15
4273;BME280;63887;53.656;9.810;2023-02-18T09:28:08;101128.16;;;5.95;98.12
4273;BME280;63887;53.656;9.810;2023-02-18T09:30:34;101118.69;;;5.92;98.77
4273;BME280;63887;53.656;9.810;2023-02-18T09:33:00;101109.28;;;5.87;99.70
4273;BME280;63887;53.656;9.810;2023-02-18T09:35:27;101119.75;;;5.85;100.00
4273;BME280;63887;53.656;9.810;2023-02-18T09:37:54;101110.06;;;5.90;100.00
4273;BME280;63887;53.656;9.810;2023-02-18T09:40:23;101109.22;;;5.90;100.00
4273;BME280;63887;53.656;9.810;2023-02-18T09:42:50;101107.25;;;5.98;100.00
4273;BME280;63887;53.656;9.810;2023-02-18T09:45:17;101096.91;;;5.95;100.00
4273;BME280;63887;53.656;9.810;2023-02-18T09:47:45;101079.50;;;5.97;100.00
4273;BME280;63887;53.656;9.810;2023-02-18T09:50:14;101071.69;;;5.97;100.00
4273;BME280;63887;53.656;9.810;2023-02-18T09:52:43;101056.41;;;6.14;99.65
4273;BME280;63887;53.656;9.810;2023-02-18T09:55:22;101079.03;;;6.12;100.00
4273;BME280;63887;53.656;9.810;2023-02-18T09:57:49;101057.16;;;6.18;99.66
4273;BME280;63887;53.656;9.810;2023-02-18T10:00:17;101018.72;;;6.24;99.05
4273;BME280;63887;53.656;9.810;2023-02-18T10:02:47;101028.44;;;6.19;100.00
4273;BME280;63887;53.656;9.810;2023-02-18T10:05:15;101066.56;;;6.22;100.00
4273;BME280;63887;53.656;9.810;2023-02-18T10:07:42;101048.28;;;6.23;100.00
4273;BME280;63887;53.656;9.810;2023-02-18T10:10:15;101045.66;;;6.23;100.00
4273;BME280;63887;53.656;9.810;2023-02-18T10:12:43;101034.31;;;6.26;99.83
4273;BME280;63887;53.656;9.810;2023-02-18T10:15:12;101043.78;;;6.28;100.00
4273;BME280;63887;53.656;9.810;2023-02-18T10:17:41;101049.06;;;6.27;100.00
4273;BME280;63887;53.656;9.810;2023-02-18T10:20:09;101036.81;;;6.29;100.00
4273;BME280;63887;53.656;9.810;2023-02-18T10:22:40;101028.06;;;6.32;100.00
4273;BME280;63887;53.656;9.810;2023-02-18T10:25:06;101028.25;;;6.25;100.00
4273;BME280;63887;53.656;9.810;2023-02-18T10:27:34;101026.41;;;6.29;100.00
4273;BME280;63887;53.656;9.810;2023-02-18T10:30:08;101018.69;;;6.26;100.00
4273;BME280;63887;53.656;9.810;2023-02-18T10:32:44;101019.16;;;6.37;100.00
4273;BME280;63887;53.656;9.810;2023-02-18T10:35:12;101026.69;;;6.46;100.00
4273;BME280;63887;53.656;9.810;2023-02-18T10:37:44;101017.00;;;6.50;100.00
4273;BME280;63887;53.656;9.810;2023-02-18T10:40:15;101014.78;;;6.64;99.34
4273;BME280;63887;53.656;9.810;2023-02-18T10:42:50;101007.41;;;6.77;98.95
4273;BME280;63887;53.656;9.810;2023-02-18T10:45:25;101003.94;;;6.76;98.52
4273;BME280;63887;53.656;9.810;2023-02-18T10:47:57;101006.72;;;6.72;99.18
4273;BME280;63887;53.656;9.810;2023-02-18T10:50:31;101002.44;;;6.69;99.05
4273;BME280;63887;53.656;9.810;2023-02-18T10:53:00;100983.13;;;6.50;99.39
4273;BME280;63887;53.656;9.810;2023-02-18T10:55:34;100981.53;;;6.46;100.00
4273;BME280;63887;53.656;9.810;2023-02-18T10:58:01;100971.13;;;6.46;100.00
4273;BME280;63887;53.656;9.810;2023-02-18T11:00:32;100971.88;;;6.49;100.00
4273;BME280;63887;53.656;9.810;2023-02-18T11:03:01;100966.94;;;6.42;100.00
4273;BME280;63887;53.656;9.810;2023-02-18T11:05:29;100955.44;;;6.47;99.98
4273;BME280;63887;53.656;9.810;2023-02-18T11:07:56;100947.66;;;6.46;100.00
4273;BME280;63887;53.656;9.810;2023-02-18T11:10:23;100946.75;;;6.47;100.00
4273;BME280;63887;53.656;9.810;2023-02-18T11:12:51;100952.88;;;6.46;100.00
4273;BME280;63887;53.656;9.810;2023-02-18T11:15:21;100936.22;;;6.50;100.00
4273;BME280;63887;53.656;9.810;2023-02-18T11:17:50;100924.59;;;6.60;100.00
4273;BME280;63887;53.656;9.810;2023-02-18T11:20:22;100917.31;;;6.70;100.00
4273;BME280;63887;53.656;9.810;2023-02-18T11:22:50;100909.00;;;6.82;100.00
4273;BME280;63887;53.656;9.810;2023-02-18T11:25:20;100909.53;;;6.92;100.00
4273;BME280;63887;53.656;9.810;2023-02-18T11:27:47;100902.38;;;6.97;100.00
4273;BME280;63887;53.656;9.810;2023-02-18T11:30:16;100898.00;;;6.97;100.00
4273;BME280;63887;53.656;9.810;2023-02-18T11:32:44;100900.47;;;7.02;100.00
4273;BME280;63887;53.656;9.810;2023-02-18T11:35:17;100903.94;;;7.02;100.00
4273;BME280;63887;53.656;9.810;2023-02-18T11:37:44;100900.47;;;7.02;100.00
4273;BME280;63887;53.656;9.810;2023-02-18T11:40:18;100898.59;;;7.05;100.00
4273;BME280;63887;53.656;9.810;2023-02-18T11:42:45;100893.69;;;7.20;100.00
4273;BME280;63887;53.656;9.810;2023-02-18T11:45:24;100889.25;;;7.22;100.00
4273;BME280;63887;53.656;9.810;2023-02-18T11:47:57;100895.13;;;7.27;100.00
4273;BME280;63887;53.656;9.810;2023-02-18T11:50:25;100900.13;;;7.33;100.00
4273;BME280;63887;53.656;9.810;2023-02-18T11:52:56;100913.19;;;7.33;100.00
4273;BME280;63887;53.656;9.810;2023-02-18T11:55:25;100908.41;;;7.44;100.00
4273;BME280;63887;53.656;9.810;2023-02-18T11:57:54;100927.03;;;7.57;100.00
4273;BME280;63887;53.656;9.810;2023-02-18T12:00:22;100923.78;;;7.72;100.00
4273;BME280;63887;53.656;9.810;2023-02-18T12:02:49;100917.38;;;8.01;100.00
4273;BME280;63887;53.656;9.810;2023-02-18T12:05:17;100932.34;;;8.18;100.00
4273;BME280;63887;53.656;9.810;2023-02-18T12:07:48;100923.09;;;8.31;100.00
4273;BME280;63887;53.656;9.810;2023-02-18T12:10:18;100921.88;;;8.40;100.00
4273;BME280;63887;53.656;9.810;2023-02-18T12:12:47;100937.22;;;8.47;100.00
4273;BME280;63887;53.656;9.810;2023-02-18T12:15:17;100940.31;;;8.57;100.00
4273;BME280;63887;53.656;9.810;2023-02-18T12:17:50;100942.84;;;8.58;100.00
4273;BME280;63887;53.656;9.810;2023-02-18T12:20:26;100939.25;;;8.61;100.00
4273;BME280;63887;53.656;9.810;2023-02-18T12:22:58;100939.06;;;8.65;100.00
4273;BME280;63887;53.656;9.810;2023-02-18T12:25:32;100946.72;;;8.70;100.00
4273;BME280;63887;53.656;9.810;2023-02-18T12:28:09;100955.75;;;8.63;100.00
4273;BME280;63887;53.656;9.810;2023-02-18T12:30:49;100941.88;;;8.61;100.00
4273;BME280;63887;53.656;9.810;2023-02-18T12:33:25;100950.84;;;8.55;100.00
4273;BME280;63887;53.656;9.810;2023-02-18T12:35:58;100953.44;;;8.55;100.00
4273;BME280;63887;53.656;9.810;2023-02-18T12:41:18;100959.53;;;8.56;100.00
4273;BME280;63887;53.656;9.810;2023-02-18T12:43:47;100963.00;;;8.56;100.00
4273;BME280;63887;53.656;9.810;2023-02-18T12:46:22;100960.38;;;8.56;100.00
4273;BME280;63887;53.656;9.810;2023-02-18T12:51:39;100975.28;;;8.54;100.00
4273;BME280;63887;53.656;9.810;2023-02-18T12:54:12;100983.53;;;8.65;100.00
4273;BME280;63887;53.656;9.810;2023-02-18T12:56:49;100986.38;;;8.59;100.00
4273;BME280;63887;53.656;9.810;2023-02-18T12:59:19;100974.38;;;8.55;100.00
4273;BME280;63887;53.656;9.810;2023-02-18T13:01:54;100986.13;;;8.65;100.00
4273;BME280;63887;53.656;9.810;2023-02-18T13:04:29;100977.56;;;8.62;100.00
4273;BME280;63887;53.656;9.810;2023-02-18T13:07:11;100987.91;;;8.65;100.00
4273;BME280;63887;53.656;9.810;2023-02-18T13:09:46;100988.34;;;8.54;100.00
4273;BME280;63887;53.656;9.810;2023-02-18T13:12:16;100996.19;;;8.54;100.00
4273;BME280;63887;53.656;9.810;2023-02-18T13:14:46;100994.63;;;8.50;100.00
4273;BME280;63887;53.656;9.810;2023-02-18T13:17:14;100991.28;;;8.47;100.00
4273;BME280;63887;53.656;9.810;2023-02-18T13:19:43;100998.28;;;8.66;100.00
4273;BME280;63887;53.656;9.810;2023-02-18T13:22:11;101018.59;;;8.60;100.00